sensor_id;sensor_type;location;lat;lon;timestamp;temperature;humidity
2106;DHT22;1059;52.548;13.408;2022-09-01T01:14:41;16.50;99.90
2106;DHT22;1059;52.548;13.408;2022-09-01T01:17:10;16.50;99.90
2106;DHT22;1059;52.548;13.408;2022-09-01T01:19:41;16.50;99.90
2106;DHT22;1059;52.548;13.408;2022-09-01T01:22:33;16.40;99.90
2106;DHT22;1059;52.548;13.408;2022-09-01T01:25:20;16.40;99.90
2106;DHT22;1059;52.548;13.408;2022-09-01T01:27:49;16.40;99.90
2106;DHT22;1059;52.548;13.408;2022-09-01T01:30:19;16.30;99.90
2106;DHT22;1059;52.548;13.408;2022-09-01T01:32:48;16.30;99.90
2106;DHT22;1059;52.548;13.408;2022-09-01T01:35:16;16.30;99.90
2106;DHT22;1059;52.548;13.408;2022-09-01T01:37:48;16.30;99.90
2106;DHT22;1059;52.548;13.408;2022-09-01T01:40:18;16.30;99.90
2106;DHT22;1059;52.548;13.408;2022-09-01T01:42:51;16.20;99.90
2106;DHT22;1059;52.548;13.408;2022-09-01T01:45:20;16.20;99.90
2106;DHT22;1059;52.548;13.408;2022-09-01T01:47:49;16.20;99.90
2106;DHT22;1059;52.548;13.408;2022-09-01T01:50:18;16.20;99.90
2106;DHT22;1059;52.548;13.408;2022-09-01T01:52:44;16.20;99.90
2106;DHT22;1059;52.548;13.408;2022-09-01T01:55:12;16.20;99.90
2106;DHT22;1059;52.548;13.408;2022-09-01T01:57:44;16.20;99.90
2106;DHT22;1059;52.548;13.408;2022-09-01T02:00:18;16.20;99.90
2106;DHT22;1059;52.548;13.408;2022-09-01T02:02:46;16.20;99.90
2106;DHT22;1059;52.548;13.408;2022-09-01T02:05:18;16.10;99.90
2106;DHT22;1059;52.548;13.408;2022-09-01T02:07:47;16.10;99.90
2106;DHT22;1059;52.548;13.408;2022-09-01T02:10:14;16.10;99.90
2106;DHT22;1059;52.548;13.408;2022-09-01T02:12:41;16.00;99.90
2106;DHT22;1059;52.548;13.408;2022-09-01T02:15:09;16.00;99.90
2106;DHT22;1059;52.548;13.408;2022-09-01T02:17:38;15.90;99.90
2106;DHT22;1059;52.548;13.408;2022-09-01T02:20:08;15.80;99.90
2106;DHT22;1059;52.548;13.408;2022-09-01T02:22:35;15.70;99.90
2106;DHT22;1059;52.548;13.408;2022-09-01T02:25:04;15.70;99.90
2106;DHT22;1059;52.548;13.408;2022-09-01T02:27:32;15.60;99.90
2106;DHT22;1059;52.548;13.408;2022-09-01T02:30:05;15.60;99.90
2106;DHT22;1059;52.548;13.408;2022-09-01T02:32:35;15.60;99.90
2106;DHT22;1059;52.548;13.408;2022-09-01T02:35:05;15.60;99.90
2106;DHT22;1059;52.548;13.408;2022-09-01T02:37:35;15.50;99.90
2106;DHT22;1059;52.548;13.408;2022-09-01T02:40:05;15.60;99.90
2106;DHT22;1059;52.548;13.408;2022-09-01T02:42:35;15.50;99.90
2106;DHT22;1059;52.548;13.408;2022-09-01T02:45:06;15.50;99.90
2106;DHT22;1059;52.548;13.408;2022-09-01T02:47:42;15.50;99.90
2106;DHT22;1059;52.548;13.408;2022-09-01T02:50:14;15.40;99.90
2106;DHT22;1059;52.548;13.408;2022-09-01T02:52:44;15.40;99.90
2106;DHT22;1059;52.548;13.408;2022-09-01T02:55:13;15.30;99.90
2106;DHT22;1059;52.548;13.408;2022-09-01T02:57:45;15.20;99.90
2106;DHT22;1059;52.548;13.408;2022-09-01T03:00:13;15.20;99.90
2106;DHT22;1059;52.548;13.408;2022-09-01T03:02:49;15.10;99.90
2106;DHT22;1059;52.548;13.408;2022-09-01T03:05:19;15.00;99.90
2106;DHT22;1059;52.548;13.408;2022-09-01T03:07:51;15.00;99.90
2106;DHT22;1059;52.548;13.408;2022-09-01T03:10:22;14.90;99.90
2106;DHT22;1059;52.548;13.408;2022-09-01T03:12:52;14.90;99.90
2106;DHT22;1059;52.548;13.408;2022-09-01T03:15:19;14.80;99.90
2106;DHT22;1059;52.548;13.408;2022-09-01T03:17:46;14.80;99.90
2106;DHT22;1059;52.548;13.408;2022-09-01T03:20:14;14.70;99.90
2106;DHT22;1059;52.548;13.408;2022-09-01T03:22:45;14.80;99.90
2106;DHT22;1059;52.548;13.408;2022-09-01T03:25:13;14.70;99.90
2106;DHT22;1059;52.548;13.408;2022-09-01T03:27:40;14.70;99.90
2106;DHT22;1059;52.548;13.408;2022-09-01T03:30:07;14.70;99.90
2106;DHT22;1059;52.548;13.408;2022-09-01T03:32:34;14.60;99.90
2106;DHT22;1059;52.548;13.408;2022-09-01T03:35:02;14.60;99.90
2106;DHT22;1059;52.548;13.408;2022-09-01T03:37:29;14.60;99.90
2106;DHT22;1059;52.548;13.408;2022-09-01T03:39:57;14.60;99.90
2106;DHT22;1059;52.548;13.408;2022-09-01T03:42:24;14.50;99.90
2106;DHT22;1059;52.548;13.408;2022-09-01T03:44:54;14.50;99.90
2106;DHT22;1059;52.548;13.408;2022-09-01T03:47:22;14.40;99.90
2106;DHT22;1059;52.548;13.408;2022-09-01T03:49:49;14.40;99.90
2106;DHT22;1059;52.548;13.408;2022-09-01T03:52:17;14.40;99.90
2106;DHT22;1059;52.548;13.408;2022-09-01T03:54:44;14.30;99.90
2106;DHT22;1059;52.548;13.408;2022-09-01T03:57:12;14.30;99.90
2106;DHT22;1059;52.548;13.408;2022-09-01T03:59:39;14.30;99.90
2106;DHT22;1059;52.548;13.408;2022-09-01T04:02:07;14.30;99.90
2106;DHT22;1059;52.548;13.408;2022-09-01T04:04:35;14.30;99.90
2106;DHT22;1059;52.548;13.408;2022-09-01T04:07:02;14.30;99.90
2106;DHT22;1059;52.548;13.408;2022-09-01T04:09:31;14.30;99.90
2106;DHT22;1059;52.548;13.408;2022-09-01T04:11:59;14.20;99.90
2106;DHT22;1059;52.548;13.408;2022-09-01T04:14:27;14.20;99.90
2106;DHT22;1059;52.548;13.408;2022-09-01T04:16:54;14.10;99.90
2106;DHT22;1059;52.548;13.408;2022-09-01T04:19:38;14.10;99.90
2106;DHT22;1059;52.548;13.408;2022-09-01T04:22:06;14.10;99.90
2106;DHT22;1059;52.548;13.408;2022-09-01T04:24:37;14.00;99.90
2106;DHT22;1059;52.548;13.408;2022-09-01T04:27:07;14.00;99.90
2106;DHT22;1059;52.548;13.408;2022-09-01T04:29:36;14.00;99.90
2106;DHT22;1059;52.548;13.408;2022-09-01T04:32:06;14.00;99.90
2106;DHT22;1059;52.548;13.408;2022-09-01T04:34:36;14.00;99.90
2106;DHT22;1059;52.548;13.408;2022-09-01T04:37:08;14.00;99.90
2106;DHT22;1059;52.548;13.408;2022-09-01T04:39:35;14.00;99.90
2106;DHT22;1059;52.548;13.408;2022-09-01T04:42:04;13.90;99.90
2106;DHT22;1059;52.548;13.408;2022-09-01T04:44:31;13.90;99.90
2106;DHT22;1059;52.548;13.408;2022-09-01T04:46:59;13.90;99.90
2106;DHT22;1059;52.548;13.408;2022-09-01T04:49:26;13.90;99.90
2106;DHT22;1059;52.548;13.408;2022-09-01T04:51:59;13.90;99.90
2106;DHT22;1059;52.548;13.408;2022-09-01T04:54:26;13.90;99.90
2106;DHT22;1059;52.548;13.408;2022-09-01T04:56:53;13.90;99.90
2106;DHT22;1059;52.548;13.408;2022-09-01T04:59:22;13.90;99.90
2106;DHT22;1059;52.548;13.408;2022-09-01T05:01:51;13.90;99.90
2106;DHT22;1059;52.548;13.408;2022-09-01T05:04:23;13.90;99.90
2106;DHT22;1059;52.548;13.408;2022-09-01T05:06:53;13.90;99.90
2106;DHT22;1059;52.548;13.408;2022-09-01T05:09:25;13.90;99.90
2106;DHT22;1059;52.548;13.408;2022-09-01T05:11:53;13.90;99.90
2106;DHT22;1059;52.548;13.408;2022-09-01T05:14:22;13.90;99.90
2106;DHT22;1059;52.548;13.408;2022-09-01T05:16:52;13.90;99.90
2106;DHT22;1059;52.548;13.408;2022-09-01T05:19:23;13.90;99.90
2106;DHT22;1059;52.548;13.408;2022-09-01T05:21:53;13.90;99.90
2106;DHT22;1059;52.548;13.408;2022-09-01T05:24:22;13.90;99.90
2106;DHT22;1059;52.548;13.408;2022-09-01T05:26:54;13.90;99.90
2106;DHT22;1059;52.548;13.408;2022-09-01T05:29:22;13.90;99.90
2106;DHT22;1059;52.548;13.408;2022-09-01T05:31:52;13.90;99.90
2106;DHT22;1059;52.548;13.408;2022-09-01T05:34:20;14.00;99.90
2106;DHT22;1059;52.548;13.408;2022-09-01T05:36:53;14.00;99.90
2106;DHT22;1059;52.548;13.408;2022-09-01T05:39:22;14.00;99.90
2106;DHT22;1059;52.548;13.408;2022-09-01T05:41:49;14.00;99.90
2106;DHT22;1059;52.548;13.408;2022-09-01T05:44:18;14.00;99.90
2106;DHT22;1059;52.548;13.408;2022-09-01T05:46:48;14.00;99.90
2106;DHT22;1059;52.548;13.408;2022-09-01T05:49:15;14.00;99.90
2106;DHT22;1059;52.548;13.408;2022-09-01T05:51:45;14.00;99.90
2106;DHT22;1059;52.548;13.408;2022-09-01T05:54:16;14.10;99.90
2106;DHT22;1059;52.548;13.408;2022-09-01T05:56:44;14.20;99.90
2106;DHT22;1059;52.548;13.408;2022-09-01T05:59:11;14.20;99.90
2106;DHT22;1059;52.548;13.408;2022-09-01T06:01:40;14.30;99.90
2106;DHT22;1059;52.548;13.408;2022-09-01T06:04:08;14.30;99.90
2106;DHT22;1059;52.548;13.408;2022-09-01T06:06:37;14.30;99.90
2106;DHT22;1059;52.548;13.408;2022-09-01T06:09:07;14.40;99.90
2106;DHT22;1059;52.548;13.408;2022-09-01T06:11:36;14.40;99.90
2106;DHT22;1059;52.548;13.408;2022-09-01T06:14:03;14.50;99.90
2106;DHT22;1059;52.548;13.408;2022-09-01T06:16:31;14.60;99.90
2106;DHT22;1059;52.548;13.408;2022-09-01T06:18:58;14.60;99.90
2106;DHT22;1059;52.548;13.408;2022-09-01T06:21:26;14.70;99.90
2106;DHT22;1059;52.548;13.408;2022-09-01T06:23:54;14.80;99.90
2106;DHT22;1059;52.548;13.408;2022-09-01T06:26:24;14.90;99.90
2106;DHT22;1059;52.548;13.408;2022-09-01T06:28:55;15.00;99.90
2106;DHT22;1059;52.548;13.408;2022-09-01T06:31:23;15.00;99.90
2106;DHT22;1059;52.548;13.408;2022-09-01T06:33:51;15.10;99.90
2106;DHT22;1059;52.548;13.408;2022-09-01T06:36:19;15.10;99.90
2106;DHT22;1059;52.548;13.408;2022-09-01T06:38:48;15.20;99.90
2106;DHT22;1059;52.548;13.408;2022-09-01T06:41:16;15.30;99.90
2106;DHT22;1059;52.548;13.408;2022-09-01T06:43:44;15.40;99.90
2106;DHT22;1059;52.548;13.408;2022-09-01T06:46:13;15.50;99.90
2106;DHT22;1059;52.548;13.408;2022-09-01T06:48:40;15.50;99.90
2106;DHT22;1059;52.548;13.408;2022-09-01T06:51:11;15.60;99.90
2106;DHT22;1059;52.548;13.408;2022-09-01T06:53:38;15.70;99.90
2106;DHT22;1059;52.548;13.408;2022-09-01T06:56:06;15.80;99.90
2106;DHT22;1059;52.548;13.408;2022-09-01T06:58:38;15.80;99.90
2106;DHT22;1059;52.548;13.408;2022-09-01T07:01:07;16.00;99.90
2106;DHT22;1059;52.548;13.408;2022-09-01T07:03:37;16.00;99.90
2106;DHT22;1059;52.548;13.408;2022-09-01T07:06:05;16.10;99.90
2106;DHT22;1059;52.548;13.408;2022-09-01T07:08:32;16.10;99.90
2106;DHT22;1059;52.548;13.408;2022-09-01T07:11:04;16.20;99.90
2106;DHT22;1059;52.548;13.408;2022-09-01T07:13:33;16.20;99.90
2106;DHT22;1059;52.548;13.408;2022-09-01T07:16:02;16.30;99.90
2106;DHT22;1059;52.548;13.408;2022-09-01T07:18:31;16.30;99.90
2106;DHT22;1059;52.548;13.408;2022-09-01T07:21:00;16.40;99.90
2106;DHT22;1059;52.548;13.408;2022-09-01T07:23:32;16.50;99.90
2106;DHT22;1059;52.548;13.408;2022-09-01T07:25:59;16.60;99.90
2106;DHT22;1059;52.548;13.408;2022-09-01T07:28:26;16.60;99.90
2106;DHT22;1059;52.548;13.408;2022-09-01T07:30:57;16.70;99.90
2106;DHT22;1059;52.548;13.408;2022-09-01T07:33:25;16.80;99.90
2106;DHT22;1059;52.548;13.408;2022-09-01T07:35:54;16.90;99.90
2106;DHT22;1059;52.548;13.408;2022-09-01T07:38:24;16.90;99.90
2106;DHT22;1059;52.548;13.408;2022-09-01T07:40:53;16.90;99.90
2106;DHT22;1059;52.548;13.408;2022-09-01T07:43:22;17.00;99.90
2106;DHT22;1059;52.548;13.408;2022-09-01T07:45:52;17.10;99.90
2106;DHT22;1059;52.548;13.408;2022-09-01T07:48:22;17.10;99.90
2106;DHT22;1059;52.548;13.408;2022-09-01T07:50:51;17.20;99.90
2106;DHT22;1059;52.548;13.408;2022-09-01T07:53:21;17.30;99.90
2106;DHT22;1059;52.548;13.408;2022-09-01T07:55:51;17.40;99.90
2106;DHT22;1059;52.548;13.408;2022-09-01T07:58:19;17.40;99.90
2106;DHT22;1059;52.548;13.408;2022-09-01T08:00:48;17.50;99.90
2106;DHT22;1059;52.548;13.408;2022-09-01T08:03:17;17.50;99.90
2106;DHT22;1059;52.548;13.408;2022-09-01T08:05:44;17.60;99.90
2106;DHT22;1059;52.548;13.408;2022-09-01T08:08:12;17.60;99.90
2106;DHT22;1059;52.548;13.408;2022-09-01T08:10:40;17.70;99.90
2106;DHT22;1059;52.548;13.408;2022-09-01T08:13:09;17.70;99.90
2106;DHT22;1059;52.548;13.408;2022-09-01T08:15:37;17.80;99.90
2106;DHT22;1059;52.548;13.408;2022-09-01T08:18:05;17.80;99.90
2106;DHT22;1059;52.548;13.408;2022-09-01T08:20:31;17.80;99.90
2106;DHT22;1059;52.548;13.408;2022-09-01T08:23:02;17.90;99.90
2106;DHT22;1059;52.548;13.408;2022-09-01T08:25:30;17.90;99.90
2106;DHT22;1059;52.548;13.408;2022-09-01T08:27:57;18.00;99.90
2106;DHT22;1059;52.548;13.408;2022-09-01T08:30:25;18.10;99.90
2106;DHT22;1059;52.548;13.408;2022-09-01T08:32:52;18.20;99.90
2106;DHT22;1059;52.548;13.408;2022-09-01T08:35:19;18.20;99.90
2106;DHT22;1059;52.548;13.408;2022-09-01T08:37:46;18.30;99.90
2106;DHT22;1059;52.548;13.408;2022-09-01T08:40:16;18.30;99.90
2106;DHT22;1059;52.548;13.408;2022-09-01T08:42:52;18.30;99.90
2106;DHT22;1059;52.548;13.408;2022-09-01T08:45:27;18.40;99.90
2106;DHT22;1059;52.548;13.408;2022-09-01T08:47:59;18.50;99.90
2106;DHT22;1059;52.548;13.408;2022-09-01T08:50:28;18.40;99.90
2106;DHT22;1059;52.548;13.408;2022-09-01T08:52:59;18.50;99.90
2106;DHT22;1059;52.548;13.408;2022-09-01T08:55:35;18.50;99.90
2106;DHT22;1059;52.548;13.408;2022-09-01T08:58:06;18.60;99.90
2106;DHT22;1059;52.548;13.408;2022-09-01T09:00:40;18.60;99.90
2106;DHT22;1059;52.548;13.408;2022-09-01T09:03:16;18.70;99.90
2106;DHT22;1059;52.548;13.408;2022-09-01T09:05:56;18.80;99.90
2106;DHT22;1059;52.548;13.408;2022-09-01T09:08:52;18.90;99.90
2106;DHT22;1059;52.548;13.408;2022-09-01T09:11:42;18.90;99.90
2106;DHT22;1059;52.548;13.408;2022-09-01T09:14:20;19.00;99.90
2106;DHT22;1059;52.548;13.408;2022-09-01T09:16:54;19.10;99.90
2106;DHT22;1059;52.548;13.408;2022-09-01T09:19:24;19.20;99.90
2106;DHT22;1059;52.548;13.408;2022-09-01T09:21:53;19.40;99.90
2106;DHT22;1059;52.548;13.408;2022-09-01T09:24:26;19.40;99.90
2106;DHT22;1059;52.548;13.408;2022-09-01T09:26:55;19.60;99.90
2106;DHT22;1059;52.548;13.408;2022-09-01T09:29:23;19.70;99.90
2106;DHT22;1059;52.548;13.408;2022-09-01T09:32:02;19.80;99.90
2106;DHT22;1059;52.548;13.408;2022-09-01T09:34:32;19.90;99.90
2106;DHT22;1059;52.548;13.408;2022-09-01T09:37:01;20.10;99.90
2106;DHT22;1059;52.548;13.408;2022-09-01T09:39:42;20.20;99.90
2106;DHT22;1059;52.548;13.408;2022-09-01T09:42:11;20.30;99.90
2106;DHT22;1059;52.548;13.408;2022-09-01T09:44:42;20.30;99.90
2106;DHT22;1059;52.548;13.408;2022-09-01T09:47:35;20.30;99.90
2106;DHT22;1059;52.548;13.408;2022-09-01T09:50:27;20.40;99.90
2106;DHT22;1059;52.548;13.408;2022-09-01T09:53:11;20.40;99.90
2106;DHT22;1059;52.548;13.408;2022-09-01T09:55:53;20.60;99.90
2106;DHT22;1059;52.548;13.408;2022-09-01T09:58:23;20.70;99.90
2106;DHT22;1059;52.548;13.408;2022-09-01T10:01:10;20.80;99.90
2106;DHT22;1059;52.548;13.408;2022-09-01T10:03:45;20.90;99.90
2106;DHT22;1059;52.548;13.408;2022-09-01T10:06:29;20.90;99.90
2106;DHT22;1059;52.548;13.408;2022-09-01T10:08:57;21.00;99.90
2106;DHT22;1059;52.548;13.408;2022-09-01T10:11:27;21.10;99.90
2106;DHT22;1059;52.548;13.408;2022-09-01T10:13:54;21.10;99.90
2106;DHT22;1059;52.548;13.408;2022-09-01T10:16:26;21.20;99.90
2106;DHT22;1059;52.548;13.408;2022-09-01T10:18:58;21.30;99.90
2106;DHT22;1059;52.548;13.408;2022-09-01T10:21:32;21.40;99.90
2106;DHT22;1059;52.548;13.408;2022-09-01T10:24:05;21.50;99.90
2106;DHT22;1059;52.548;13.408;2022-09-01T10:26:35;21.70;99.90
2106;DHT22;1059;52.548;13.408;2022-09-01T10:29:06;21.90;99.90
2106;DHT22;1059;52.548;13.408;2022-09-01T10:31:34;22.00;99.90
2106;DHT22;1059;52.548;13.408;2022-09-01T10:34:04;22.00;99.90
2106;DHT22;1059;52.548;13.408;2022-09-01T10:36:36;22.10;99.90
2106;DHT22;1059;52.548;13.408;2022-09-01T10:39:06;22.10;99.90
2106;DHT22;1059;52.548;13.408;2022-09-01T10:41:50;22.20;99.90
2106;DHT22;1059;52.548;13.408;2022-09-01T10:44:20;22.30;99.90
2106;DHT22;1059;52.548;13.408;2022-09-01T10:46:49;22.40;99.90
2106;DHT22;1059;52.548;13.408;2022-09-01T10:52:03;22.40;99.90
2106;DHT22;1059;52.548;13.408;2022-09-01T10:57:43;22.50;99.90
2106;DHT22;1059;52.548;13.408;2022-09-01T11:00:50;22.50;99.90
2106;DHT22;1059;52.548;13.408;2022-09-01T11:03:48;22.40;99.90
2106;DHT22;1059;52.548;13.408;2022-09-01T11:06:52;22.30;99.90
2106;DHT22;1059;52.548;13.408;2022-09-01T11:09:25;22.20;99.90
2106;DHT22;1059;52.548;13.408;2022-09-01T11:14:48;22.10;99.90
2106;DHT22;1059;52.548;13.408;2022-09-01T11:17:19;22.20;99.90
2106;DHT22;1059;52.548;13.408;2022-09-01T11:19:53;22.20;99.90
2106;DHT22;1059;52.548;13.408;2022-09-01T11:22:26;22.20;99.90
2106;DHT22;1059;52.548;13.408;2022-09-01T11:25:32;22.30;99.90
2106;DHT22;1059;52.548;13.408;2022-09-01T11:28:08;22.30;99.90
2106;DHT22;1059;52.548;13.408;2022-09-01T11:30:40;22.40;99.90
2106;DHT22;1059;52.548;13.408;2022-09-01T11:33:26;22.50;99.90
2106;DHT22;1059;52.548;13.408;2022-09-01T11:35:58;22.90;99.90
2106;DHT22;1059;52.548;13.408;2022-09-01T11:38:28;23.50;99.50
2106;DHT22;1059;52.548;13.408;2022-09-01T11:40:57;24.20;96.30
2106;DHT22;1059;52.548;13.408;2022-09-01T11:43:25;25.10;92.50
2106;DHT22;1059;52.548;13.408;2022-09-01T11:46:01;26.10;88.70
2106;DHT22;1059;52.548;13.408;2022-09-01T11:48:31;26.50;79.30
2106;DHT22;1059;52.548;13.408;2022-09-01T11:51:00;26.30;73.10
2106;DHT22;1059;52.548;13.408;2022-09-01T11:53:30;26.10;71.80
2106;DHT22;1059;52.548;13.408;2022-09-01T11:56:12;25.70;72.20
2106;DHT22;1059;52.548;13.408;2022-09-01T11:58:39;25.20;70.60
2106;DHT22;1059;52.548;13.408;2022-09-01T12:01:17;24.70;71.10
2106;DHT22;1059;52.548;13.408;2022-09-01T12:03:45;24.30;71.70
2106;DHT22;1059;52.548;13.408;2022-09-01T12:06:26;24.00;74.00
2106;DHT22;1059;52.548;13.408;2022-09-01T12:08:57;23.80;78.10
2106;DHT22;1059;52.548;13.408;2022-09-01T12:11:27;23.80;80.00
2106;DHT22;1059;52.548;13.408;2022-09-01T12:14:00;23.70;85.00
2106;DHT22;1059;52.548;13.408;2022-09-01T12:16:28;23.60;87.70
2106;DHT22;1059;52.548;13.408;2022-09-01T12:18:57;23.40;87.50
2106;DHT22;1059;52.548;13.408;2022-09-01T12:21:26;23.30;90.10
2106;DHT22;1059;52.548;13.408;2022-09-01T12:24:09;23.20;90.90
2106;DHT22;1059;52.548;13.408;2022-09-01T12:26:38;23.10;90.40
2106;DHT22;1059;52.548;13.408;2022-09-01T12:29:05;23.10;91.90
2106;DHT22;1059;52.548;13.408;2022-09-01T12:31:33;23.00;90.90
2106;DHT22;1059;52.548;13.408;2022-09-01T12:34:00;22.90;92.10
2106;DHT22;1059;52.548;13.408;2022-09-01T12:36:30;22.90;92.40
2106;DHT22;1059;52.548;13.408;2022-09-01T12:39:19;22.80;93.40
2106;DHT22;1059;52.548;13.408;2022-09-01T12:41:49;22.80;93.10
2106;DHT22;1059;52.548;13.408;2022-09-01T12:44:28;22.90;93.20
2106;DHT22;1059;52.548;13.408;2022-09-01T12:46:56;23.00;92.20
2106;DHT22;1059;52.548;13.408;2022-09-01T12:49:25;23.10;92.60
2106;DHT22;1059;52.548;13.408;2022-09-01T12:52:09;23.20;92.90
2106;DHT22;1059;52.548;13.408;2022-09-01T12:54:38;23.50;95.60
2106;DHT22;1059;52.548;13.408;2022-09-01T12:57:05;24.70;91.20
2106;DHT22;1059;52.548;13.408;2022-09-01T12:59:32;26.20;90.50
2106;DHT22;1059;52.548;13.408;2022-09-01T13:02:26;28.10;82.70
2106;DHT22;1059;52.548;13.408;2022-09-01T13:04:53;30.20;65.10
2106;DHT22;1059;52.548;13.408;2022-09-01T13:07:20;31.50;56.60
2106;DHT22;1059;52.548;13.408;2022-09-01T13:09:49;31.80;51.40
2106;DHT22;1059;52.548;13.408;2022-09-01T13:12:18;31.80;49.30
2106;DHT22;1059;52.548;13.408;2022-09-01T13:14:45;31.40;47.10
2106;DHT22;1059;52.548;13.408;2022-09-01T13:17:12;30.60;46.90
2106;DHT22;1059;52.548;13.408;2022-09-01T13:19:39;29.80;46.60
2106;DHT22;1059;52.548;13.408;2022-09-01T13:22:06;28.80;48.80
2106;DHT22;1059;52.548;13.408;2022-09-01T13:24:33;28.10;49.90
2106;DHT22;1059;52.548;13.408;2022-09-01T13:27:01;27.60;51.50
2106;DHT22;1059;52.548;13.408;2022-09-01T13:29:29;27.10;51.90
2106;DHT22;1059;52.548;13.408;2022-09-01T13:31:56;26.60;52.20
2106;DHT22;1059;52.548;13.408;2022-09-01T13:34:23;26.10;54.00
2106;DHT22;1059;52.548;13.408;2022-09-01T13:36:50;25.80;54.90
2106;DHT22;1059;52.548;13.408;2022-09-01T13:39:17;25.40;55.90
2106;DHT22;1059;52.548;13.408;2022-09-01T13:41:44;25.00;57.30
2106;DHT22;1059;52.548;13.408;2022-09-01T13:44:12;24.70;58.40
2106;DHT22;1059;52.548;13.408;2022-09-01T13:46:40;24.30;58.80
2106;DHT22;1059;52.548;13.408;2022-09-01T13:49:07;24.00;59.40
2106;DHT22;1059;52.548;13.408;2022-09-01T13:51:34;23.80;60.80
2106;DHT22;1059;52.548;13.408;2022-09-01T13:54:02;23.70;60.40
2106;DHT22;1059;52.548;13.408;2022-09-01T13:56:29;23.60;61.40
2106;DHT22;1059;52.548;13.408;2022-09-01T13:58:55;23.60;62.10
2106;DHT22;1059;52.548;13.408;2022-09-01T14:01:24;23.60;63.30
2106;DHT22;1059;52.548;13.408;2022-09-01T14:03:51;23.60;63.90
2106;DHT22;1059;52.548;13.408;2022-09-01T14:06:17;23.70;64.50
2106;DHT22;1059;52.548;13.408;2022-09-01T14:08:45;23.60;64.10
2106;DHT22;1059;52.548;13.408;2022-09-01T14:11:15;23.70;65.80
2106;DHT22;1059;52.548;13.408;2022-09-01T14:13:44;23.80;65.20
2106;DHT22;1059;52.548;13.408;2022-09-01T14:16:12;23.90;63.50
2106;DHT22;1059;52.548;13.408;2022-09-01T14:18:40;23.90;65.80
2106;DHT22;1059;52.548;13.408;2022-09-01T14:21:11;24.00;66.20
2106;DHT22;1059;52.548;13.408;2022-09-01T14:23:39;24.00;63.20
2106;DHT22;1059;52.548;13.408;2022-09-01T14:26:08;24.10;63.60
2106;DHT22;1059;52.548;13.408;2022-09-01T14:28:36;24.10;64.50
2106;DHT22;1059;52.548;13.408;2022-09-01T14:31:07;24.20;64.00
2106;DHT22;1059;52.548;13.408;2022-09-01T14:33:34;24.40;64.90
2106;DHT22;1059;52.548;13.408;2022-09-01T14:36:04;24.70;62.40
2106;DHT22;1059;52.548;13.408;2022-09-01T14:38:32;25.00;65.50
2106;DHT22;1059;52.548;13.408;2022-09-01T14:40:59;26.00;59.50
2106;DHT22;1059;52.548;13.408;2022-09-01T14:43:27;27.00;58.90
2106;DHT22;1059;52.548;13.408;2022-09-01T14:46:02;28.30;56.00
2106;DHT22;1059;52.548;13.408;2022-09-01T14:48:31;29.50;54.20
2106;DHT22;1059;52.548;13.408;2022-09-01T14:50:59;30.20;49.50
2106;DHT22;1059;52.548;13.408;2022-09-01T14:53:28;30.20;48.60
2106;DHT22;1059;52.548;13.408;2022-09-01T14:55:55;30.30;48.10
2106;DHT22;1059;52.548;13.408;2022-09-01T14:58:23;30.50;46.80
2106;DHT22;1059;52.548;13.408;2022-09-01T15:00:51;30.70;45.40
2106;DHT22;1059;52.548;13.408;2022-09-01T15:03:19;30.40;44.70
2106;DHT22;1059;52.548;13.408;2022-09-01T15:05:47;30.10;46.00
2106;DHT22;1059;52.548;13.408;2022-09-01T15:08:17;29.80;45.10
2106;DHT22;1059;52.548;13.408;2022-09-01T15:10:46;29.40;45.60
2106;DHT22;1059;52.548;13.408;2022-09-01T15:13:13;29.10;47.20
2106;DHT22;1059;52.548;13.408;2022-09-01T15:15:40;29.50;46.60
2106;DHT22;1059;52.548;13.408;2022-09-01T15:18:07;30.00;46.20
2106;DHT22;1059;52.548;13.408;2022-09-01T15:20:39;30.40;45.20
2106;DHT22;1059;52.548;13.408;2022-09-01T15:23:12;31.20;44.40
2106;DHT22;1059;52.548;13.408;2022-09-01T15:25:40;31.70;43.60
2106;DHT22;1059;52.548;13.408;2022-09-01T15:28:09;32.00;43.70
2106;DHT22;1059;52.548;13.408;2022-09-01T15:30:36;32.10;42.70
2106;DHT22;1059;52.548;13.408;2022-09-01T15:33:04;31.50;42.10
2106;DHT22;1059;52.548;13.408;2022-09-01T15:35:31;30.40;42.80
2106;DHT22;1059;52.548;13.408;2022-09-01T15:37:59;29.30;45.10
2106;DHT22;1059;52.548;13.408;2022-09-01T15:40:26;28.20;45.90
2106;DHT22;1059;52.548;13.408;2022-09-01T15:42:53;27.60;47.30
2106;DHT22;1059;52.548;13.408;2022-09-01T15:45:23;27.00;48.50
2106;DHT22;1059;52.548;13.408;2022-09-01T15:47:50;26.40;48.80
2106;DHT22;1059;52.548;13.408;2022-09-01T15:50:19;26.00;49.40
2106;DHT22;1059;52.548;13.408;2022-09-01T15:52:49;25.60;50.10
2106;DHT22;1059;52.548;13.408;2022-09-01T15:55:17;25.30;50.90
2106;DHT22;1059;52.548;13.408;2022-09-01T15:57:45;24.90;51.20
2106;DHT22;1059;52.548;13.408;2022-09-01T16:00:13;24.60;52.50
2106;DHT22;1059;52.548;13.408;2022-09-01T16:02:42;24.30;52.90
2106;DHT22;1059;52.548;13.408;2022-09-01T16:05:09;23.90;54.10
2106;DHT22;1059;52.548;13.408;2022-09-01T16:07:36;23.70;54.30
2106;DHT22;1059;52.548;13.408;2022-09-01T16:10:04;23.50;55.40
2106;DHT22;1059;52.548;13.408;2022-09-01T16:12:35;23.30;55.20
2106;DHT22;1059;52.548;13.408;2022-09-01T16:15:03;23.10;56.30
2106;DHT22;1059;52.548;13.408;2022-09-01T16:17:56;23.10;57.00
2106;DHT22;1059;52.548;13.408;2022-09-01T16:20:34;23.00;56.80
2106;DHT22;1059;52.548;13.408;2022-09-01T16:23:11;22.90;57.40
2106;DHT22;1059;52.548;13.408;2022-09-01T16:25:38;22.80;58.00
2106;DHT22;1059;52.548;13.408;2022-09-01T16:28:23;22.70;58.30
2106;DHT22;1059;52.548;13.408;2022-09-01T16:30:54;22.70;59.80
2106;DHT22;1059;52.548;13.408;2022-09-01T16:33:24;22.60;60.30
2106;DHT22;1059;52.548;13.408;2022-09-01T16:36:02;22.60;61.60
2106;DHT22;1059;52.548;13.408;2022-09-01T16:38:39;22.60;62.30
2106;DHT22;1059;52.548;13.408;2022-09-01T16:41:17;22.60;62.20
2106;DHT22;1059;52.548;13.408;2022-09-01T16:43:52;22.50;61.00
2106;DHT22;1059;52.548;13.408;2022-09-01T16:46:25;22.50;60.10
2106;DHT22;1059;52.548;13.408;2022-09-01T16:49:17;22.40;60.80
2106;DHT22;1059;52.548;13.408;2022-09-01T16:51:54;22.30;61.70
2106;DHT22;1059;52.548;13.408;2022-09-01T16:54:26;22.10;64.50
2106;DHT22;1059;52.548;13.408;2022-09-01T16:57:02;22.00;65.70
2106;DHT22;1059;52.548;13.408;2022-09-01T16:59:36;21.90;68.40
2106;DHT22;1059;52.548;13.408;2022-09-01T17:02:18;21.80;71.00
2106;DHT22;1059;52.548;13.408;2022-09-01T17:04:51;21.70;74.00
2106;DHT22;1059;52.548;13.408;2022-09-01T17:07:23;21.50;76.70
2106;DHT22;1059;52.548;13.408;2022-09-01T17:09:58;21.40;80.20
2106;DHT22;1059;52.548;13.408;2022-09-01T17:12:34;21.30;81.80
2106;DHT22;1059;52.548;13.408;2022-09-01T17:15:07;21.20;84.50
2106;DHT22;1059;52.548;13.408;2022-09-01T17:17:41;21.10;84.70
2106;DHT22;1059;52.548;13.408;2022-09-01T17:20:11;21.00;86.60
2106;DHT22;1059;52.548;13.408;2022-09-01T17:22:40;21.00;88.40
2106;DHT22;1059;52.548;13.408;2022-09-01T17:25:14;20.90;89.80
2106;DHT22;1059;52.548;13.408;2022-09-01T17:27:52;20.80;90.70
2106;DHT22;1059;52.548;13.408;2022-09-01T17:30:20;20.80;92.10